Time;durP1;ratioP1;P1;durP2;ratioP2;P2;SDS_P1;SDS_P2;PMS_P1;PMS_P2;Temp;Humidity;BMP_temperature;BMP_pressure;BME280_temperature;BME280_humidity;BME280_pressure;Samples;Min_cycle;Max_cycle;Signal;HPM_P1;HPM_P2
2021/11/22 00:01:49;;;;;;;12.70;11.38;;;;;;;2.39;100.00;95521.41;5010481;28;24958;-74
2021/11/22 00:04:16;;;;;;;13.07;11.07;;;;;;;2.39;100.00;95521.41;5010797;28;24871;-74
2021/11/22 00:06:43;;;;;;;15.07;11.67;;;;;;;2.28;100.00;95520.09;5010312;28;24837;-74
2021/11/22 00:09:09;;;;;;;13.73;11.27;;;;;;;2.24;100.00;95516.81;5010629;28;24415;-74
2021/11/22 00:11:36;;;;;;;13.00;11.73;;;;;;;2.26;100.00;95517.59;5010933;28;24416;-74
2021/11/22 00:14:04;;;;;;;15.02;12.18;;;;;;;2.22;100.00;95530.53;5010475;28;24408;-74
2021/11/22 00:16:30;;;;;;;18.17;12.60;;;;;;;2.28;100.00;95526.03;5010450;28;24780;-74
2021/11/22 00:18:57;;;;;;;15.32;11.80;;;;;;;2.24;100.00;95533.88;5010569;28;24436;-74
2021/11/22 00:21:24;;;;;;;13.77;11.68;;;;;;;2.30;100.00;95531.09;5010618;28;24420;-74
2021/11/22 00:23:51;;;;;;;14.07;11.90;;;;;;;2.24;100.00;95534.69;5010411;28;24448;-74
2021/11/22 00:26:17;;;;;;;15.13;12.75;;;;;;;2.29;100.00;95540.47;5010021;28;24463;-74
2021/11/22 00:28:44;;;;;;;16.55;13.77;;;;;;;2.26;100.00;95538.03;5010367;28;24431;-74
2021/11/22 00:31:12;;;;;;;17.98;13.98;;;;;;;2.30;100.00;95542.16;5010429;28;24970;-74
2021/11/22 00:33:38;;;;;;;16.65;14.05;;;;;;;2.27;100.00;95546.56;5010594;28;24939;-74
2021/11/22 00:36:05;;;;;;;16.27;13.50;;;;;;;2.32;100.00;95545.50;5010142;28;24524;-74
2021/11/22 00:38:32;;;;;;;14.65;12.55;;;;;;;2.32;100.00;95537.81;5010225;28;24856;-74
2021/11/22 00:40:58;;;;;;;17.70;13.85;;;;;;;2.30;100.00;95544.72;5010116;28;24423;-74
2021/11/22 00:43:25;;;;;;;14.90;13.33;;;;;;;2.26;100.00;95544.84;5010375;28;24533;-74
2021/11/22 00:45:53;;;;;;;16.75;13.77;;;;;;;2.23;100.00;95547.53;5010141;28;24787;-74
2021/11/22 00:48:22;;;;;;;20.20;14.07;;;;;;;2.18;100.00;95547.69;5013993;28;24420;-74
2021/11/22 00:50:50;;;;;;;15.50;12.50;;;;;;;2.21;100.00;95551.84;5013952;28;24567;-74
2021/11/22 00:53:16;;;;;;;14.45;10.45;;;;;;;2.27;100.00;95549.94;5013832;28;24419;-74
2021/11/22 00:55:43;;;;;;;14.25;10.40;;;;;;;2.29;100.00;95554.97;5013517;28;25006;-74
2021/11/22 00:58:10;;;;;;;10.25;9.02;;;;;;;2.39;100.00;95553.78;5013955;28;24440;-74
2021/11/22 01:00:36;;;;;;;12.52;9.57;;;;;;;2.50;100.00;95550.88;5013582;28;25074;-74
2021/11/22 01:03:04;;;;;;;12.93;10.75;;;;;;;2.50;100.00;95548.31;5013630;28;24451;-74
2021/11/22 01:05:32;;;;;;;12.50;10.48;;;;;;;2.53;100.00;95541.38;5013226;28;24428;-74
2021/11/22 01:08:00;;;;;;;17.23;10.75;;;;;;;2.67;100.00;95551.94;5013502;28;24424;-74
2021/11/22 01:10:27;;;;;;;12.00;10.80;;;;;;;3.09;100.00;95551.28;5013708;28;24456;-74
2021/11/22 01:12:53;;;;;;;13.18;10.23;;;;;;;2.83;100.00;95553.97;5013697;28;24416;-74
2021/11/22 01:15:23;;;;;;;12.88;11.07;;;;;;;2.73;100.00;95553.44;5013269;28;24443;-74
2021/11/22 01:17:52;;;;;;;13.98;12.50;;;;;;;2.70;100.00;95562.94;5013451;28;24412;-74
2021/11/22 01:20:28;;;;;;;13.52;12.13;;;;;;;2.66;100.00;95564.78;5013433;28;24451;-74
2021/11/22 01:22:57;;;;;;;12.77;11.45;;;;;;;2.63;100.00;95567.44;5013388;28;24477;-74
2021/11/22 01:25:23;;;;;;;15.32;12.10;;;;;;;2.45;100.00;95568.94;5013082;28;24475;-74
2021/11/22 01:27:51;;;;;;;14.27;12.32;;;;;;;2.39;100.00;95567.41;5013294;28;24770;-74
2021/11/22 01:30:18;;;;;;;14.95;13.48;;;;;;;2.29;100.00;95578.81;5013319;28;24434;-74
2021/11/22 01:32:45;;;;;;;17.75;14.95;;;;;;;2.21;100.00;95574.84;5013231;28;24432;-74
2021/11/22 01:35:12;;;;;;;21.08;15.10;;;;;;;2.16;100.00;95583.50;5013173;28;24420;-74
2021/11/22 01:37:39;;;;;;;15.95;14.35;;;;;;;2.24;100.00;95583.25;5013086;28;24437;-74
2021/11/22 01:40:10;;;;;;;17.48;15.65;;;;;;;2.23;100.00;95591.81;5013064;28;24507;-74
2021/11/22 01:42:38;;;;;;;19.35;15.70;;;;;;;2.23;100.00;95583.31;5012923;28;24440;-74
2021/11/22 01:45:05;;;;;;;19.33;16.98;;;;;;;2.20;100.00;95581.69;5012617;28;24455;-74
2021/11/22 01:47:32;;;;;;;17.80;16.00;;;;;;;2.30;100.00;95584.75;5012621;28;24420;-74
2021/11/22 01:49:58;;;;;;;20.65;17.55;;;;;;;2.35;100.00;95575.22;5013053;28;24416;-74
2021/11/22 01:52:24;;;;;;;18.25;16.45;;;;;;;2.31;100.00;95592.38;5012663;28;24977;-74
2021/11/22 01:54:51;;;;;;;18.60;16.70;;;;;;;2.20;100.00;95585.97;5012604;28;24467;-74
2021/11/22 01:57:19;;;;;;;16.92;14.98;;;;;;;2.07;100.00;95581.22;5012080;28;24479;-74
2021/11/22 01:59:46;;;;;;;16.25;13.15;;;;;;;1.98;100.00;95581.56;5012014;28;24444;-74
2021/11/22 02:02:13;;;;;;;16.80;12.80;;;;;;;1.94;100.00;95585.91;5012426;28;24420;-74
2021/11/22 02:04:39;;;;;;;17.13;13.88;;;;;;;1.99;100.00;95590.88;5012687;28;24482;-74
2021/11/22 02:07:06;;;;;;;17.20;13.77;;;;;;;1.99;100.00;95584.94;5012218;28;24421;-74
2021/11/22 02:09:33;;;;;;;15.43;13.40;;;;;;;2.01;100.00;95595.94;5012546;28;24423;-74
2021/11/22 02:12:00;;;;;;;16.15;14.35;;;;;;;2.12;100.00;95591.34;5012408;28;24958;-74
2021/11/22 02:14:27;;;;;;;15.05;13.43;;;;;;;2.19;100.00;95590.25;5012374;28;24938;-74
2021/11/22 02:16:54;;;;;;;17.25;15.27;;;;;;;2.13;100.00;95593.81;5011855;28;24810;-74
2021/11/22 02:19:20;;;;;;;16.55;14.85;;;;;;;2.07;100.00;95604.22;5012148;28;25012;-74
2021/11/22 02:21:48;;;;;;;16.25;12.38;;;;;;;2.05;100.00;95597.53;5011564;28;24443;-74
2021/11/22 02:24:15;;;;;;;17.07;11.73;;;;;;;2.10;100.00;95600.75;5011948;28;24452;-74
2021/11/22 02:26:41;;;;;;;12.80;11.50;;;;;;;2.19;100.00;95605.56;5011881;28;24513;-74
2021/11/22 02:29:08;;;;;;;12.27;10.98;;;;;;;2.27;100.00;95603.59;5011841;28;24432;-75
2021/11/22 02:31:34;;;;;;;14.95;12.80;;;;;;;2.27;100.00;95603.59;5011937;28;24431;-75
2021/11/22 02:34:02;;;;;;;18.83;14.18;;;;;;;2.25;100.00;95605.34;5012286;28;24475;-75
2021/11/22 02:36:28;;;;;;;16.55;14.82;;;;;;;2.30;100.00;95616.28;5011619;28;24490;-75
2021/11/22 02:38:56;;;;;;;17.30;14.02;;;;;;;2.25;100.00;95610.47;5012067;28;24499;-75
2021/11/22 02:41:23;;;;;;;16.40;13.82;;;;;;;2.32;100.00;95611.09;5012008;28;24413;-75
2021/11/22 02:43:49;;;;;;;16.05;14.32;;;;;;;2.41;100.00;95611.66;5011731;28;24444;-75
2021/11/22 02:46:16;;;;;;;21.10;15.40;;;;;;;2.37;100.00;95606.66;5011415;28;24961;-74
2021/11/22 02:48:43;;;;;;;16.03;14.33;;;;;;;2.30;100.00;95610.31;5011888;28;24428;-74
2021/11/22 02:51:10;;;;;;;17.80;14.98;;;;;;;2.23;100.00;95606.31;5011724;28;24775;-74
2021/11/22 02:53:37;;;;;;;17.70;15.85;;;;;;;2.10;100.00;95605.84;5011582;28;24439;-74
2021/11/22 02:56:07;;;;;;;19.65;14.80;;;;;;;2.21;100.00;95605.50;5011316;28;24428;-74
2021/11/22 02:58:35;;;;;;;19.05;14.75;;;;;;;2.21;100.00;95601.22;5011345;28;24436;-74
2021/11/22 03:01:03;;;;;;;14.35;13.00;;;;;;;2.28;100.00;95602.69;5011527;28;24432;-74
2021/11/22 03:03:31;;;;;;;16.35;14.65;;;;;;;2.43;100.00;95616.69;5011531;28;24447;-74
2021/11/22 03:06:09;;;;;;;15.68;13.88;;;;;;;2.41;100.00;95614.19;5011098;28;24420;-74
2021/11/22 03:08:37;;;;;;;16.88;14.07;;;;;;;2.27;100.00;95620.66;5011258;28;24412;-74
2021/11/22 03:11:05;;;;;;;14.77;12.88;;;;;;;2.30;100.00;95625.63;5011382;28;24455;-75
2021/11/22 03:13:32;;;;;;;15.93;13.52;;;;;;;2.32;100.00;95617.03;5011480;28;24415;-74
2021/11/22 03:15:59;;;;;;;17.48;14.20;;;;;;;2.32;100.00;95626.44;5010987;28;24432;-74
2021/11/22 03:18:25;;;;;;;14.93;13.23;;;;;;;2.28;100.00;95627.44;5011264;28;24416;-74
2021/11/22 03:20:52;;;;;;;16.00;12.87;;;;;;;2.26;100.00;95627.47;5011200;28;24429;-74
2021/11/22 03:23:18;;;;;;;14.00;12.50;;;;;;;2.28;100.00;95625.69;5011027;28;24502;-74
2021/11/22 03:25:45;;;;;;;15.13;11.85;;;;;;;2.35;100.00;95631.47;5010735;28;24436;-74
2021/11/22 03:28:16;;;;;;;15.40;12.52;;;;;;;2.43;100.00;95632.03;5011176;28;24527;-74
2021/11/22 03:30:42;;;;;;;15.73;12.27;;;;;;;2.42;100.00;95635.47;5011178;28;24515;-74
2021/11/22 03:33:08;;;;;;;15.52;12.68;;;;;;;2.32;100.00;95627.28;5011056;28;24420;-74
2021/11/22 03:35:35;;;;;;;14.88;12.98;;;;;;;2.28;100.00;95640.22;5010553;28;24427;-74
2021/11/22 03:38:01;;;;;;;16.20;14.00;;;;;;;2.24;100.00;95641.19;5010877;28;24428;-74
2021/11/22 03:40:28;;;;;;;15.98;14.30;;;;;;;2.17;100.00;95650.75;5011028;28;24420;-74
2021/11/22 03:43:11;;;;;;;14.68;13.27;;;;;;;2.12;100.00;95648.38;5011416;28;24431;-74
2021/11/22 03:45:41;;;;;;;13.35;11.98;;;;;;;2.27;100.00;95644.47;5010695;28;24423;-74
2021/11/22 03:48:08;;;;;;;14.18;12.68;;;;;;;2.37;100.00;95645.00;5011435;28;24428;-74
2021/11/22 03:50:34;;;;;;;13.85;12.20;;;;;;;2.39;100.00;95650.91;5010741;28;24423;-74
2021/11/22 03:53:01;;;;;;;13.23;11.95;;;;;;;2.43;100.00;95648.19;5011075;28;24450;-74
2021/11/22 03:55:28;;;;;;;13.30;11.63;;;;;;;2.35;100.00;95647.63;5010655;28;24412;-74
2021/11/22 03:57:54;;;;;;;13.90;12.18;;;;;;;2.47;100.00;95653.22;5010906;28;24483;-73
2021/11/22 04:00:22;;;;;;;17.85;12.63;;;;;;;2.42;100.00;95648.25;5010806;28;24424;-74
2021/11/22 04:02:50;;;;;;;13.30;12.00;;;;;;;2.37;100.00;95652.66;5010736;28;24566;-74
2021/11/22 04:05:17;;;;;;;16.07;12.87;;;;;;;2.46;100.00;95654.13;5010325;28;25056;-74
2021/11/22 04:07:43;;;;;;;14.98;13.07;;;;;;;2.35;100.00;95667.22;5010869;28;24496;-74
2021/11/22 04:10:10;;;;;;;15.85;12.98;;;;;;;2.30;100.00;95658.88;5010756;28;24474;-74
2021/11/22 04:12:37;;;;;;;15.47;12.43;;;;;;;2.28;100.00;95663.19;5010671;28;24420;-74
2021/11/22 04:15:04;;;;;;;15.95;12.85;;;;;;;2.32;100.00;95669.88;5010402;28;24802;-74
2021/11/22 04:17:30;;;;;;;14.13;11.98;;;;;;;2.32;100.00;95669.88;5010438;28;24429;-74
2021/11/22 04:19:58;;;;;;;13.20;11.80;;;;;;;2.34;100.00;95674.06;5010443;28;24972;-74
2021/11/22 04:22:25;;;;;;;12.43;11.23;;;;;;;2.28;100.00;95676.81;5013361;28;24475;-74
2021/11/22 04:24:51;;;;;;;12.77;11.48;;;;;;;2.30;100.00;95684.41;5014172;28;24446;-74
2021/11/22 04:27:18;;;;;;;13.25;11.93;;;;;;;2.25;100.00;95683.75;5014155;28;25016;-74
2021/11/22 04:29:45;;;;;;;12.90;11.60;;;;;;;2.25;100.00;95688.84;5014289;28;24424;-75
2021/11/22 04:32:12;;;;;;;12.70;10.70;;;;;;;2.15;100.00;95693.41;5014236;28;24786;-74
2021/11/22 04:34:38;;;;;;;12.88;10.98;;;;;;;2.21;100.00;95693.22;5014407;28;24427;-74
2021/11/22 04:37:07;;;;;;;11.85;10.35;;;;;;;2.18;100.00;95699.25;5014018;28;24424;-74
2021/11/22 04:39:34;;;;;;;10.40;9.30;;;;;;;2.26;100.00;95700.72;5014275;28;24435;-73
2021/11/22 04:42:01;;;;;;;12.13;10.07;;;;;;;2.23;100.00;95703.41;5014088;28;24428;-74
2021/11/22 04:44:27;;;;;;;11.05;9.95;;;;;;;2.21;100.00;95703.44;5014070;28;24494;-74
2021/11/22 04:46:54;;;;;;;11.05;9.23;;;;;;;2.15;100.00;95707.03;5013575;28;25122;-73
2021/11/22 04:49:20;;;;;;;10.38;9.38;;;;;;;2.30;100.00;95712.53;5014337;28;24423;-74
2021/11/22 04:51:47;;;;;;;12.48;10.15;;;;;;;2.29;100.00;95714.25;5014070;28;24427;-74
2021/11/22 04:54:14;;;;;;;10.50;9.40;;;;;;;2.34;100.00;95720.06;5013735;28;24977;-74
2021/11/22 04:56:41;;;;;;;9.33;8.43;;;;;;;2.35;100.00;95724.28;5013457;28;25064;-74
2021/11/22 04:59:07;;;;;;;8.70;7.90;;;;;;;2.41;100.00;95725.81;5013718;28;24822;-74
2021/11/22 05:01:34;;;;;;;9.40;8.38;;;;;;;2.38;100.00;95728.47;5009652;28;24498;-74
2021/11/22 05:04:00;;;;;;;9.10;8.23;;;;;;;2.36;100.00;95722.56;5013238;28;24456;-74
2021/11/22 05:06:27;;;;;;;8.60;7.47;;;;;;;2.42;100.00;95732.63;5013151;28;24440;-74
2021/11/22 05:08:53;;;;;;;8.60;7.80;;;;;;;2.46;100.00;95734.19;5013471;28;24435;-73
2021/11/22 05:11:21;;;;;;;8.55;7.75;;;;;;;2.48;100.00;95729.00;5013491;28;24423;-73
2021/11/22 05:13:47;;;;;;;8.05;7.35;;;;;;;2.48;100.00;95734.97;5013205;28;24838;-73
2021/11/22 05:16:14;;;;;;;8.98;8.05;;;;;;;2.40;100.00;95735.19;5013127;28;24444;-73
2021/11/22 05:18:40;;;;;;;8.43;7.43;;;;;;;2.46;100.00;95734.19;5013119;28;24989;-74
2021/11/22 05:21:07;;;;;;;8.77;7.88;;;;;;;2.48;100.00;95744.34;5013408;28;24467;-73
2021/11/22 05:23:33;;;;;;;8.63;7.63;;;;;;;2.51;100.00;95737.41;5013158;28;25031;-74
2021/11/22 05:25:59;;;;;;;8.13;7.40;;;;;;;2.54;100.00;95741.59;5012806;28;24569;-74
2021/11/22 05:28:27;;;;;;;8.33;7.53;;;;;;;2.58;100.00;95740.63;5012813;28;24420;-74
2021/11/22 05:30:54;;;;;;;8.23;7.32;;;;;;;2.67;100.00;95746.28;5013272;28;25009;-74
2021/11/22 05:33:20;;;;;;;8.77;7.80;;;;;;;2.61;100.00;95738.81;5012913;28;24424;-74
2021/11/22 05:35:47;;;;;;;8.95;7.88;;;;;;;2.66;100.00;95751.44;5012748;28;24427;-74
2021/11/22 05:38:13;;;;;;;8.40;7.60;;;;;;;2.62;100.00;95745.59;5013073;28;24499;-74
2021/11/22 05:40:40;;;;;;;8.13;7.33;;;;;;;2.61;100.00;95746.47;5012982;28;24424;-74
2021/11/22 05:43:07;;;;;;;9.75;8.00;;;;;;;2.68;100.00;95759.91;5012739;28;24423;-74
2021/11/22 05:45:35;;;;;;;8.93;8.02;;;;;;;2.66;100.00;95761.66;5012675;28;24467;-74
2021/11/22 05:48:03;;;;;;;8.65;7.78;;;;;;;2.59;100.00;95761.00;5005039;28;24802;-74
2021/11/22 05:50:30;;;;;;;9.23;8.32;;;;;;;2.69;100.00;95769.25;5009638;28;24479;-74
2021/11/22 05:52:59;;;;;;;8.55;7.75;;;;;;;2.63;100.00;95764.31;5012480;28;24439;-74
2021/11/22 05:55:37;;;;;;;8.35;7.55;;;;;;;2.62;100.00;95770.31;5011963;28;24486;-74
2021/11/22 05:58:05;;;;;;;9.07;8.13;;;;;;;2.47;100.00;95776.75;5012861;28;24478;-74
2021/11/22 06:00:32;;;;;;;9.20;8.20;;;;;;;2.34;100.00;95773.75;5012736;28;24424;-74
2021/11/22 06:03:00;;;;;;;8.60;7.63;;;;;;;2.30;100.00;95777.28;5012608;28;24420;-74
2021/11/22 06:05:27;;;;;;;9.70;8.25;;;;;;;2.31;100.00;95780.66;5012154;28;24490;-74
2021/11/22 06:07:53;;;;;;;10.98;9.20;;;;;;;2.23;100.00;95787.72;5012410;28;24412;-74
2021/11/22 06:10:20;;;;;;;11.00;9.05;;;;;;;2.27;100.00;95787.59;5012652;28;24424;-74
2021/11/22 06:12:47;;;;;;;10.17;9.13;;;;;;;2.31;100.00;95788.34;5012446;28;24435;-74
2021/11/22 06:15:13;;;;;;;10.47;8.87;;;;;;;2.30;100.00;95799.41;5012084;28;24453;-74
2021/11/22 06:17:40;;;;;;;11.40;10.30;;;;;;;2.27;100.00;95802.09;5012227;28;24977;-74
2021/11/22 06:20:09;;;;;;;10.82;9.70;;;;;;;2.22;100.00;95796.25;5012278;28;24420;-74
2021/11/22 06:22:36;;;;;;;10.33;9.33;;;;;;;2.36;100.00;95799.25;5012028;28;25045;-74
2021/11/22 06:25:03;;;;;;;9.70;8.80;;;;;;;2.33;100.00;95812.09;5011963;28;24886;-74
2021/11/22 06:27:29;;;;;;;10.57;9.48;;;;;;;2.27;100.00;95807.19;5012124;28;24465;-74
2021/11/22 06:29:56;;;;;;;9.95;8.95;;;;;;;2.27;100.00;95810.59;5012018;28;24432;-74
2021/11/22 06:32:25;;;;;;;11.00;8.80;;;;;;;2.29;100.00;95813.09;5012062;28;24874;-74
2021/11/22 06:34:52;;;;;;;10.18;8.68;;;;;;;2.32;100.00;95806.16;5011711;28;24427;-74
2021/11/22 06:37:20;;;;;;;9.73;8.60;;;;;;;2.31;100.00;95813.88;5011912;28;24439;-74
2021/11/22 06:39:46;;;;;;;9.95;9.05;;;;;;;2.31;100.00;95816.44;5012186;28;24420;-74
2021/11/22 06:42:13;;;;;;;10.35;8.63;;;;;;;2.30;100.00;95819.88;5011919;28;24423;-74
2021/11/22 06:44:39;;;;;;;10.10;9.18;;;;;;;2.30;100.00;95825.84;5011032;28;24463;-74
2021/11/22 06:47:06;;;;;;;9.82;8.63;;;;;;;2.26;100.00;95824.22;5011340;28;24973;-74
2021/11/22 06:49:32;;;;;;;9.93;8.93;;;;;;;2.28;100.00;95831.88;5011683;28;24431;-74
2021/11/22 06:51:59;;;;;;;9.52;8.50;;;;;;;2.21;100.00;95838.88;5009367;28;24432;-76
2021/11/22 06:54:27;;;;;;;8.55;7.65;;;;;;;2.25;100.00;95834.50;5004073;28;24427;-76
2021/11/22 06:56:53;;;;;;;8.40;7.60;;;;;;;2.38;100.00;95840.94;5010772;28;24444;-75
2021/11/22 06:59:20;;;;;;;8.07;7.00;;;;;;;2.43;100.00;95855.25;5011839;28;24420;-75
2021/11/22 07:01:46;;;;;;;8.80;7.90;;;;;;;2.47;100.00;95847.50;5011844;28;24432;-76
2021/11/22 07:04:13;;;;;;;7.90;7.13;;;;;;;2.49;100.00;95853.41;5011724;28;24483;-75
2021/11/22 07:06:40;;;;;;;7.13;6.50;;;;;;;2.58;100.00;95855.69;5011666;28;24543;-75
2021/11/22 07:09:07;;;;;;;8.90;8.00;;;;;;;2.51;100.00;95861.84;5012129;28;24977;-75
2021/11/22 07:11:35;;;;;;;8.75;7.10;;;;;;;2.56;100.00;95858.28;5011593;28;24523;-74
2021/11/22 07:14:02;;;;;;;8.32;7.50;;;;;;;2.63;100.00;95856.38;5012172;28;24427;-74
2021/11/22 07:16:29;;;;;;;8.65;7.22;;;;;;;2.71;100.00;95868.91;5011212;28;24428;-75
2021/11/22 07:18:56;;;;;;;7.70;6.90;;;;;;;2.69;100.00;95873.25;5011508;28;24508;-75
2021/11/22 07:21:22;;;;;;;7.37;6.67;;;;;;;2.70;100.00;95873.19;5012207;28;24942;-76
2021/11/22 07:23:49;;;;;;;7.60;6.90;;;;;;;2.76;100.00;95875.59;5011323;28;24443;-76
2021/11/22 07:26:17;;;;;;;6.95;6.35;;;;;;;2.77;100.00;95878.97;5000382;28;24464;-75
2021/11/22 07:28:45;;;;;;;9.80;7.45;;;;;;;2.86;100.00;95887.22;5011908;28;24436;-75
2021/11/22 07:31:11;;;;;;;7.82;6.70;;;;;;;2.95;100.00;95890.38;5011852;28;24894;-75
2021/11/22 07:33:38;;;;;;;10.35;7.15;;;;;;;2.90;100.00;95886.22;5012691;28;24435;-75
2021/11/22 07:36:05;;;;;;;8.45;6.80;;;;;;;2.90;100.00;95898.19;5012773;28;24440;-75
2021/11/22 07:38:31;;;;;;;7.40;6.50;;;;;;;2.94;100.00;95897.22;5013678;28;24953;-76
2021/11/22 07:40:58;;;;;;;9.23;6.47;;;;;;;3.03;100.00;95899.47;5013577;28;24842;-76
2021/11/22 07:43:24;;;;;;;8.20;7.35;;;;;;;2.86;100.00;95900.00;5013074;28;24428;-76
2021/11/22 07:45:52;;;;;;;7.40;6.53;;;;;;;2.90;100.00;95911.81;5011999;28;25012;-77
2021/11/22 07:48:19;;;;;;;7.68;6.88;;;;;;;2.91;100.00;95910.09;4998120;28;24437;-74
2021/11/22 07:50:45;;;;;;;7.43;6.35;;;;;;;2.88;100.00;95917.84;4991494;28;24966;-75
2021/11/22 07:53:12;;;;;;;8.20;6.90;;;;;;;2.98;100.00;95915.84;4997617;28;24551;-74
2021/11/22 07:55:38;;;;;;;6.82;6.15;;;;;;;3.20;100.00;95921.16;5010415;28;24424;-75
2021/11/22 07:58:05;;;;;;;6.90;6.20;;;;;;;3.03;100.00;95930.16;5011522;28;24428;-73
2021/11/22 08:00:32;;;;;;;7.03;6.20;;;;;;;3.01;100.00;95928.56;5011030;28;24436;-73
2021/11/22 08:03:00;;;;;;;6.80;6.20;;;;;;;3.02;100.00;95928.50;5011367;28;24822;-75
2021/11/22 08:05:28;;;;;;;6.47;5.70;;;;;;;3.10;100.00;95936.78;5011055;28;24448;-74
2021/11/22 08:07:55;;;;;;;6.90;6.17;;;;;;;3.11;100.00;95937.59;5012277;28;24459;-73
2021/11/22 08:10:28;;;;;;;6.00;5.47;;;;;;;3.13;100.00;95943.53;5010652;28;24448;-73
2021/11/22 08:12:57;;;;;;;6.20;5.55;;;;;;;3.13;100.00;95948.66;5010506;28;24435;-72
2021/11/22 08:15:25;;;;;;;8.13;5.15;;;;;;;3.02;100.00;95946.41;5010475;28;24412;-73
2021/11/22 08:17:52;;;;;;;7.97;5.50;;;;;;;3.10;100.00;95953.84;5010710;28;24452;-73
2021/11/22 08:20:22;;;;;;;6.00;4.95;;;;;;;3.36;100.00;95959.00;5010642;28;24443;-73
2021/11/22 08:22:49;;;;;;;5.55;5.05;;;;;;;3.21;100.00;95953.53;5010252;28;24495;-73
2021/11/22 08:25:17;;;;;;;5.47;4.97;;;;;;;3.22;100.00;95965.44;5010205;28;24444;-73
2021/11/22 08:27:44;;;;;;;4.72;4.28;;;;;;;3.26;100.00;95960.16;5011570;28;24443;-75
2021/11/22 08:30:13;;;;;;;5.43;4.93;;;;;;;3.57;100.00;95967.72;5008997;28;24437;-73
2021/11/22 08:32:41;;;;;;;5.15;4.65;;;;;;;3.49;100.00;95974.84;5010427;28;24486;-73
2021/11/22 08:35:09;;;;;;;6.45;5.35;;;;;;;3.49;100.00;95979.13;5010190;28;24431;-73
2021/11/22 08:37:38;;;;;;;5.57;4.78;;;;;;;3.52;100.00;95977.31;5010340;28;24435;-73
2021/11/22 08:40:07;;;;;;;5.60;4.95;;;;;;;3.40;100.00;95980.22;5009890;28;24443;-73
2021/11/22 08:42:34;;;;;;;4.53;4.13;;;;;;;3.70;100.00;95977.56;5009971;28;24435;-73
2021/11/22 08:45:00;;;;;;;5.82;4.78;;;;;;;3.66;100.00;95978.56;5010069;28;24480;-73
2021/11/22 08:47:27;;;;;;;4.90;4.38;;;;;;;3.60;100.00;95982.19;5010424;28;24519;-73
2021/11/22 08:49:54;;;;;;;4.72;4.18;;;;;;;3.59;100.00;95986.44;5010146;28;24973;-73
2021/11/22 08:52:24;;;;;;;4.13;3.83;;;;;;;3.52;100.00;95991.78;5009952;28;25009;-72
2021/11/22 08:54:53;;;;;;;4.40;4.00;;;;;;;3.62;100.00;95994.03;5009492;28;24502;-73
2021/11/22 08:57:20;;;;;;;4.00;3.60;;;;;;;3.63;100.00;95992.28;5010025;28;24437;-73
2021/11/22 08:59:47;;;;;;;7.00;4.45;;;;;;;3.55;100.00;95995.09;5009889;28;24439;-73
2021/11/22 09:02:14;;;;;;;6.55;4.35;;;;;;;3.60;100.00;95998.38;5010203;28;24424;-73
2021/11/22 09:04:41;;;;;;;5.07;4.60;;;;;;;3.83;100.00;95992.50;5010091;28;24542;-73
2021/11/22 09:07:08;;;;;;;5.78;4.70;;;;;;;3.84;100.00;95994.16;5009876;28;24446;-73
2021/11/22 09:09:35;;;;;;;7.82;5.35;;;;;;;3.74;100.00;95999.63;5013612;28;24966;-73
2021/11/22 09:12:03;;;;;;;5.00;4.50;;;;;;;3.66;100.00;96009.31;5013465;28;24439;-73
2021/11/22 09:14:30;;;;;;;5.72;4.60;;;;;;;3.68;100.00;96010.09;5013616;28;24412;-73
2021/11/22 09:16:56;;;;;;;6.78;5.28;;;;;;;3.67;100.00;96013.53;5013426;28;24432;-73
2021/11/22 09:19:23;;;;;;;6.60;4.57;;;;;;;3.84;100.00;96016.41;5013433;28;24419;-73
2021/11/22 09:21:49;;;;;;;7.75;5.20;;;;;;;3.73;100.00;96023.59;5013045;28;24435;-73
2021/11/22 09:24:16;;;;;;;10.03;5.10;;;;;;;3.85;100.00;96024.03;5012925;28;24432;-73
2021/11/22 09:26:43;;;;;;;5.20;4.63;;;;;;;3.88;100.00;96023.09;5012696;28;24463;-73
2021/11/22 09:29:11;;;;;;;5.18;4.38;;;;;;;4.07;100.00;96031.00;5013342;28;24439;-73
2021/11/22 09:31:37;;;;;;;5.97;5.03;;;;;;;4.01;100.00;96028.66;5013039;28;24436;-73
2021/11/22 09:34:04;;;;;;;6.93;5.30;;;;;;;4.09;100.00;96035.22;5013183;28;24423;-73
2021/11/22 09:36:30;;;;;;;5.50;4.90;;;;;;;3.93;100.00;96040.88;5012817;28;24437;-76
2021/11/22 09:38:57;;;;;;;11.50;5.15;;;;;;;3.79;100.00;96041.34;5013126;28;24984;-73
2021/11/22 09:41:27;;;;;;;7.65;5.35;;;;;;;3.86;100.00;96041.09;5012693;28;24972;-73
2021/11/22 09:43:55;;;;;;;6.38;5.43;;;;;;;3.98;100.00;96044.16;5011805;28;24447;-78
2021/11/22 09:46:24;;;;;;;6.38;5.13;;;;;;;3.71;100.00;96046.72;4993016;28;24863;-74
2021/11/22 09:48:51;;;;;;;6.68;5.85;;;;;;;4.03;100.00;96043.09;4993237;28;24484;-74
2021/11/22 09:51:18;;;;;;;7.38;5.68;;;;;;;3.92;100.00;96041.78;4993588;28;24424;-74
2021/11/22 09:53:45;;;;;;;7.35;5.45;;;;;;;3.94;100.00;96047.69;5003252;28;24791;-73
2021/11/22 09:56:12;;;;;;;8.07;5.97;;;;;;;3.96;100.00;96054.44;5012438;28;25024;-72
2021/11/22 09:58:39;;;;;;;6.82;5.75;;;;;;;3.93;100.00;96054.56;5012826;28;24478;-75
2021/11/22 10:01:14;;;;;;;6.40;5.80;;;;;;;4.09;100.00;96063.41;5013058;28;24498;-76
2021/11/22 10:03:42;;;;;;;6.38;5.50;;;;;;;3.86;100.00;96063.31;5013020;28;24532;-75
2021/11/22 10:06:09;;;;;;;7.90;6.18;;;;;;;3.95;100.00;96057.06;5011725;28;24475;-75
2021/11/22 10:08:41;;;;;;;8.70;6.43;;;;;;;3.82;100.00;96059.16;5012993;28;24431;-75
2021/11/22 10:11:12;;;;;;;7.75;6.68;;;;;;;4.10;100.00;96065.06;5012886;28;24428;-74
2021/11/22 10:13:41;;;;;;;8.30;6.40;;;;;;;4.16;100.00;96064.06;5012699;28;24435;-74
2021/11/22 10:16:25;;;;;;;8.57;6.88;;;;;;;4.16;100.00;96058.09;5012338;28;24791;-74
2021/11/22 10:18:55;;;;;;;7.03;6.32;;;;;;;4.03;100.00;96060.19;5011543;28;24428;-74
2021/11/22 10:21:24;;;;;;;8.10;6.78;;;;;;;4.03;100.00;96068.72;5012801;28;24435;-74
2021/11/22 10:23:57;;;;;;;7.72;6.80;;;;;;;3.96;100.00;96058.72;5012904;28;24440;-79
2021/11/22 10:26:24;;;;;;;7.50;6.78;;;;;;;4.04;100.00;96057.59;5011834;28;24459;-74
2021/11/22 10:28:54;;;;;;;10.45;7.50;;;;;;;4.19;100.00;96060.53;5012313;28;24486;-75
2021/11/22 10:31:23;;;;;;;9.02;7.32;;;;;;;4.32;100.00;96059.25;5012479;28;24423;-75
2021/11/22 10:33:51;;;;;;;8.20;7.32;;;;;;;3.92;100.00;96072.50;5012244;28;24474;-75
2021/11/22 10:36:22;;;;;;;9.55;7.13;;;;;;;3.88;100.00;96066.66;5011735;28;24413;-75
2021/11/22 10:38:51;;;;;;;11.05;7.70;;;;;;;4.24;100.00;96066.34;5012380;28;24424;-75
2021/11/22 10:41:20;;;;;;;11.52;7.05;;;;;;;4.26;100.00;96074.81;5010971;28;24981;-75
2021/11/22 10:43:52;;;;;;;9.90;7.30;;;;;;;4.18;100.00;96064.81;5011550;28;24531;-74
2021/11/22 10:46:25;;;;;;;12.38;7.35;;;;;;;4.14;100.00;96065.81;5011654;28;25005;-75
2021/11/22 10:48:53;;;;;;;9.97;7.20;;;;;;;3.86;100.00;96065.88;5012028;28;24586;-75
2021/11/22 10:51:26;;;;;;;9.57;7.68;;;;;;;4.25;100.00;96073.16;5011810;28;24524;-75
2021/11/22 10:53:54;;;;;;;8.60;6.63;;;;;;;3.99;100.00;96076.56;5011812;28;24443;-75
2021/11/22 10:56:23;;;;;;;13.65;7.78;;;;;;;3.93;100.00;96076.75;5011641;28;24432;-76
2021/11/22 10:58:56;;;;;;;8.30;6.40;;;;;;;4.03;100.00;96081.53;5011888;28;24432;-76
2021/11/22 11:01:35;;;;;;;9.50;6.60;;;;;;;3.97;100.00;96073.19;5011817;28;24779;-75
2021/11/22 11:04:05;;;;;;;12.48;6.22;;;;;;;4.17;100.00;96070.00;5011580;28;24435;-74
2021/11/22 11:06:46;;;;;;;7.75;6.30;;;;;;;4.08;100.00;96076.28;5011146;28;25032;-74
2021/11/22 11:09:17;;;;;;;8.50;6.27;;;;;;;3.90;100.00;96079.44;5011443;28;24420;-74
2021/11/22 11:11:45;;;;;;;7.30;5.20;;;;;;;4.04;100.00;96072.13;5011342;28;24976;-74
2021/11/22 11:14:16;;;;;;;8.13;4.90;;;;;;;3.87;100.00;96083.75;5011218;28;24420;-75
2021/11/22 11:16:44;;;;;;;8.18;5.07;;;;;;;3.90;100.00;96072.59;5011098;28;24428;-75
2021/11/22 11:19:12;;;;;;;7.63;5.43;;;;;;;3.95;100.00;96085.25;5011244;28;25020;-73
2021/11/22 11:21:40;;;;;;;7.53;5.60;;;;;;;4.12;100.00;96086.38;5011434;28;24428;-74
2021/11/22 11:24:09;;;;;;;7.88;5.40;;;;;;;3.93;100.00;96094.69;4997471;28;24457;-74
2021/11/22 11:26:37;;;;;;;7.80;5.00;;;;;;;3.78;100.00;96104.56;4991021;28;24452;-74
2021/11/22 11:29:05;;;;;;;8.95;5.40;;;;;;;3.94;100.00;96096.38;4991405;28;24431;-75